Aviation Digital Data Service (ADDS)

Output produced by METARs form (2154 UTC 21 September 2018)
found at http://aviationweather.gov/metar/data/
 
KEWR 212151Z 18009KT 10SM FEW023 BKN028 BKN036 23/18 A3005 RMK AO2 SLP176 T02330183
KEWR 212141Z 2122/2224 18011KT P6SM SCT025 BKN035 
     TEMPO 2122/2124 BKN030 
     FM220300 21010KT P6SM SCT025 BKN035 
     FM220600 24010KT P6SM SCT020 BKN035 
     TEMPO 2207/2209 5SM -SHRA BKN020 
     FM221000 26012KT P6SM BKN050 
     FM221200 33012KT P6SM SCT050 
     FM221800 36010KT P6SM SCT250